Time;durP1;ratioP1;P1;durP2;ratioP2;P2;SDS_P1;SDS_P2;PMS_P1;PMS_P2;Temp;Humidity;BMP_temperature;BMP_pressure;BME280_temperature;BME280_humidity;BME280_pressure;Samples;Min_cycle;Max_cycle;Signal;HPM_P1;HPM_P2
2019/05/03 00:03:31;;;;;;;2.8;2.2;;;;;;;13.4;69.22559;953.9729;;;;
2019/05/03 00:06:01;;;;;;;3.3;2.3;;;;;;;13.72;67.94434;953.9952;;;;
2019/05/03 00:08:22;;;;;;;3.6;2.7;;;;;;;13.24;70.08496;953.8961;;;;
2019/05/03 00:10:49;;;;;;;4.1;2.5;;;;;;;13.26;69.99414;953.9215;;;;
2019/05/03 00:13:15;;;;;;;3.9;2.5;;;;;;;13.54;68.96582;953.9963;;;;
2019/05/03 00:18:05;;;;;;;3.2;2.4;;;;;;;13.33;69.86426;953.921;;;;
2019/05/03 00:20:30;;;;;;;3.2;2.5;;;;;;;13.46;69.46094;953.9031;;;;
2019/05/03 00:22:55;;;;;;;4.2;2.4;;;;;;;13.63;68.6748;953.8472;;;;
2019/05/03 00:25:21;;;;;;;3.3;2.4;;;;;;;13.52;69.19824;953.8795;;;;
2019/05/03 00:27:46;;;;;;;5.6;2.3;;;;;;;13.54;69.28418;953.9048;;;;
2019/05/03 00:30:11;;;;;;;3.3;2.4;;;;;;;13.73;68.67676;953.863;;;;
2019/05/03 00:32:36;;;;;;;3.3;2.3;;;;;;;13.51;69.17285;953.8717;;;;
2019/05/03 00:35:06;;;;;;;3.4;2.5;;;;;;;13.61;69.02441;953.8611;;;;
2019/05/03 00:37:28;;;;;;;2.5;2.2;;;;;;;13.74;68.67969;953.86;;;;
2019/05/03 00:40:02;;;;;;;3.6;2.4;;;;;;;13.86;68.40234;953.8014;;;;
2019/05/03 00:42:18;;;;;;;4.7;2.2;;;;;;;13.63;69.38281;953.8733;;;;
2019/05/03 00:44:43;;;;;;;3.4;2.3;;;;;;;13.63;69.42969;953.808;;;;
2019/05/03 00:47:09;;;;;;;4;2.4;;;;;;;13.55;69.62793;953.825;;;;
2019/05/03 00:49:34;;;;;;;3.5;2.6;;;;;;;13.54;69.71973;953.8448;;;;
2019/05/03 00:51:59;;;;;;;3.3;2.5;;;;;;;13.55;69.875;953.8956;;;;
2019/05/03 00:54:24;;;;;;;3.5;2.6;;;;;;;13.54;69.89648;953.8578;;;;
2019/05/03 00:56:49;;;;;;;4.9;2.8;;;;;;;13.59;69.76465;953.8773;;;;
2019/05/03 00:59:23;;;;;;;3.4;2.6;;;;;;;13.49;70.32617;953.85;;;;
2019/05/03 02:13:04;;;;;;;4.4;3;;;;;;;14.1;68.30957;953.7316;;;;
2019/05/03 02:15:29;;;;;;;6.8;5.8;;;;;;;14.13;68.05469;953.7162;;;;
2019/05/03 02:17:54;;;;;;;7.7;6.5;;;;;;;14.09;67.69531;953.7501;;;;
2019/05/03 02:20:19;;;;;;;7.9;5.9;;;;;;;14.05;67.80469;953.6509;;;;
2019/05/03 02:22:44;;;;;;;8.7;6.4;;;;;;;13.98;68.23145;953.7208;;;;
2019/05/03 02:25:09;;;;;;;7.7;6.3;;;;;;;14.04;68.05273;953.6995;;;;
2019/05/03 02:27:34;;;;;;;8.2;6.4;;;;;;;14.05;68.11328;953.7762;;;;
2019/05/03 02:29:59;;;;;;;8.4;6.5;;;;;;;13.97;68.24316;953.7449;;;;
2019/05/03 02:32:24;;;;;;;7.8;6;;;;;;;13.98;68.24316;953.7431;;;;
2019/05/03 02:34:49;;;;;;;9.7;6.6;;;;;;;13.89;68.45508;953.734;;;;
2019/05/03 02:37:15;;;;;;;8;6.4;;;;;;;13.91;68.30371;953.6653;;;;
2019/05/03 02:39:40;;;;;;;8.3;6.6;;;;;;;13.89;68.34863;953.734;;;;
2019/05/03 02:42:05;;;;;;;8.4;6.8;;;;;;;13.89;68.7959;953.687;;;;
2019/05/03 02:44:30;;;;;;;7.8;6.3;;;;;;;13.91;68.20996;953.7216;;;;
2019/05/03 02:49:28;;;;;;;8.6;7;;;;;;;13.7;68.3418;953.7422;;;;
2019/05/03 02:51:46;;;;;;;8.4;6.7;;;;;;;13.63;69.28711;953.6997;;;;
2019/05/03 02:54:13;;;;;;;9.5;7.7;;;;;;;13.73;68.41699;953.7413;;;;
2019/05/03 02:56:38;;;;;;;10.6;7.9;;;;;;;13.65;69.10254;953.7081;;;;
2019/05/03 02:59:03;;;;;;;9.3;7.6;;;;;;;13.68;69.01074;953.6772;;;;
2019/05/03 03:01:30;;;;;;;9.5;7.7;;;;;;;13.74;68.85645;953.6469;;;;
2019/05/03 03:03:55;;;;;;;9.4;7.5;;;;;;;13.77;69.12012;953.6891;;;;
2019/05/03 03:06:20;;;;;;;10.3;7.6;;;;;;;13.8;68.79395;953.7314;;;;
2019/05/03 03:08:45;;;;;;;10;7.7;;;;;;;13.82;68.60938;953.7324;;;;
2019/05/03 03:11:11;;;;;;;11.4;7.8;;;;;;;13.83;68.97656;953.7985;;;;
2019/05/03 03:13:36;;;;;;;10.9;7.7;;;;;;;13.8;68.66406;953.7314;;;;
2019/05/03 03:16:01;;;;;;;10.2;7.9;;;;;;;13.8;68.68848;953.7876;;;;
2019/05/03 03:18:26;;;;;;;10.3;7.6;;;;;;;13.86;68.80371;953.7939;;;;
2019/05/03 03:20:51;;;;;;;10.3;8.2;;;;;;;13.91;69.04785;953.7438;;;;
2019/05/03 03:23:16;;;;;;;11.7;8;;;;;;;13.93;68.87402;953.7656;;;;
2019/05/03 03:25:41;;;;;;;11.5;8.4;;;;;;;13.9;68.75098;953.7584;;;;
2019/05/03 03:28:06;;;;;;;14.1;9.1;;;;;;;13.8;69.38574;953.7914;;;;
2019/05/03 03:30:37;;;;;;;11.5;8.8;;;;;;;13.79;69.18164;953.7759;;;;
2019/05/03 03:32:56;;;;;;;12.9;9.3;;;;;;;13.62;69.82813;953.7927;;;;
2019/05/03 03:35:21;;;;;;;11.7;9.2;;;;;;;13.67;69.81152;953.8583;;;;
2019/05/03 03:37:46;;;;;;;12.6;9.7;;;;;;;13.59;70.11816;953.8434;;;;
2019/05/03 03:40:11;;;;;;;14;9.8;;;;;;;13.49;70.49121;953.8853;;;;
2019/05/03 03:42:37;;;;;;;13.4;9.1;;;;;;;13.38;70.63867;953.9026;;;;
2019/05/03 03:45:02;;;;;;;11.2;9.2;;;;;;;13.54;70.31152;953.9662;;;;
2019/05/03 03:47:27;;;;;;;13.6;9.8;;;;;;;13.49;70.17285;953.9807;;;;
2019/05/03 03:49:52;;;;;;;13.9;9.9;;;;;;;13.34;71.21094;953.871;;;;
2019/05/03 03:52:17;;;;;;;13.3;10.2;;;;;;;13.5;69.79688;953.8994;;;;
2019/05/03 03:54:42;;;;;;;15.2;10.2;;;;;;;13.36;71.02637;953.9844;;;;
2019/05/03 03:57:07;;;;;;;13.7;10.6;;;;;;;13.3;70.69727;953.9793;;;;
2019/05/03 03:59:33;;;;;;;13.3;10.4;;;;;;;13.46;70.36816;953.9998;;;;
2019/05/03 04:02:27;;;;;;;13.9;10.5;;;;;;;13.53;69.65918;954.0346;;;;
2019/05/03 04:04:52;;;;;;;15.2;11.1;;;;;;;13.56;69.60645;953.9895;;;;
2019/05/03 04:07:18;;;;;;;16.1;11.5;;;;;;;13.52;69.90625;953.9671;;;;
2019/05/03 04:09:43;;;;;;;15.4;11.1;;;;;;;13.56;69.81836;953.997;;;;
2019/05/03 04:12:09;;;;;;;17.8;12.3;;;;;;;13.56;69.7002;953.9931;;;;
2019/05/03 04:14:43;;;;;;;16;12;;;;;;;13.58;69.84473;954.0764;;;;
2019/05/03 04:19:28;;;;;;;19.3;13.2;;;;;;;13.51;70.01074;954.0471;;;;
2019/05/03 04:21:50;;;;;;;17;13.1;;;;;;;13.46;70.05078;954.0953;;;;
2019/05/03 04:24:15;;;;;;;18.1;13.9;;;;;;;13.25;70.40625;954.0331;;;;
2019/05/03 04:26:40;;;;;;;21.3;14.8;;;;;;;13.07;72.21484;954.0987;;;;
2019/05/03 04:29:05;;;;;;;20.3;14.7;;;;;;;13.25;71.2666;954.1115;;;;
2019/05/03 04:31:30;;;;;;;20.3;14;;;;;;;13.26;71.18457;954.1398;;;;
2019/05/03 04:33:56;;;;;;;19.1;14.7;;;;;;;13.28;70.58691;954.1538;;;;
2019/05/03 04:36:21;;;;;;;21.1;14.9;;;;;;;13.45;69.91797;954.1544;;;;
2019/05/03 04:38:46;;;;;;;18.5;14.6;;;;;;;13.39;70.13379;954.122;;;;
2019/05/03 04:41:12;;;;;;;21.4;15.4;;;;;;;13.41;69.94922;954.1658;;;;
2019/05/03 04:43:37;;;;;;;22.5;15.1;;;;;;;13.43;69.87988;954.1144;;;;
2019/05/03 04:46:11;;;;;;;21.9;15.5;;;;;;;13.34;70.58496;954.1547;;;;
2019/05/03 04:48:29;;;;;;;24.2;16.9;;;;;;;13.44;70.20117;954.1429;;;;
2019/05/03 04:50:54;;;;;;;23.2;15.9;;;;;;;13.39;70.3457;954.1613;;;;
2019/05/03 04:53:19;;;;;;;23.3;16.5;;;;;;;13.45;70.30762;954.272;;;;
2019/05/03 04:55:44;;;;;;;21.8;15.4;;;;;;;13.44;69.94141;954.2381;;;;
2019/05/03 04:58:09;;;;;;;22.8;16.4;;;;;;;13.4;70.32422;954.2512;;;;
2019/05/03 05:00:34;;;;;;;24;17.1;;;;;;;13.5;70.1748;954.2838;;;;
2019/05/03 05:03:00;;;;;;;24;16.6;;;;;;;13.48;70.3252;954.322;;;;
2019/05/03 05:05:25;;;;;;;25.4;16.7;;;;;;;13.44;70.24805;954.2999;;;;
2019/05/03 05:07:50;;;;;;;23.9;16.6;;;;;;;13.53;69.79102;954.3169;;;;
2019/05/03 05:10:16;;;;;;;25.8;18;;;;;;;13.53;70.21387;954.3876;;;;
2019/05/03 05:12:41;;;;;;;26.2;17.7;;;;;;;13.4;70.91406;954.3466;;;;
2019/05/03 05:15:06;;;;;;;24.9;17.3;;;;;;;13.47;70.42969;954.4769;;;;
2019/05/03 05:17:58;;;;;;;23.8;17.9;;;;;;;13.36;70.625;954.4418;;;;
2019/05/03 05:20:05;;;;;;;24.8;17.4;;;;;;;13.35;70.9043;954.467;;;;
2019/05/03 05:22:24;;;;;;;26.5;17.6;;;;;;;13.47;70.42969;954.5161;;;;
2019/05/03 05:24:47;;;;;;;28.7;18.3;;;;;;;13.48;70.2998;954.5237;;;;
2019/05/03 05:29:37;;;;;;;25;18;;;;;;;13.47;69.93457;954.5553;;;;
2019/05/03 05:32:02;;;;;;;25.1;17.6;;;;;;;13.49;69.91504;954.5375;;;;
2019/05/03 05:34:27;;;;;;;25;17.6;;;;;;;13.54;69.63867;954.5586;;;;
2019/05/03 05:36:52;;;;;;;24;17.6;;;;;;;13.62;69.6377;954.6481;;;;
2019/05/03 05:39:18;;;;;;;27.9;18.7;;;;;;;13.58;69.30371;954.6595;;;;
2019/05/03 05:41:43;;;;;;;26.6;19.3;;;;;;;13.57;69.7373;954.6231;;;;
2019/05/03 05:44:08;;;;;;;29;18.9;;;;;;;13.64;69.22949;954.6342;;;;
2019/05/03 05:46:41;;;;;;;31.6;19.9;;;;;;;13.58;69.93945;954.6741;;;;
2019/05/03 05:48:58;;;;;;;28.8;20;;;;;;;13.43;69.63379;954.6021;;;;
2019/05/03 05:51:23;;;;;;;28.6;19.9;;;;;;;13.52;69.83691;954.7106;;;;
2019/05/03 05:53:48;;;;;;;28.6;20;;;;;;;13.47;69.52148;954.7552;;;;
2019/05/03 05:58:42;;;;;;;29.2;19.6;;;;;;;13.45;70.18945;954.778;;;;
2019/05/03 06:01:10;;;;;;;26.9;20.1;;;;;;;13.45;70.17773;954.7126;;;;
2019/05/03 06:03:28;;;;;;;27.3;19.8;;;;;;;13.31;71.0293;954.7397;;;;
2019/05/03 06:05:56;;;;;;;28.5;20.7;;;;;;;13.29;71.07031;954.7667;;;;
2019/05/03 06:08:44;;;;;;;28.2;19.6;;;;;;;13.35;70.52734;954.7531;;;;
2019/05/03 06:11:44;;;;;;;27.1;19.9;;;;;;;13.4;70.19238;954.7402;;;;
2019/05/03 06:13:16;;;;;;;32.1;20.9;;;;;;;13.1;71.66504;954.808;;;;
2019/05/03 06:15:47;;;;;;;27.6;19.4;;;;;;;13.19;70.72656;954.8421;;;;
2019/05/03 06:18:01;;;;;;;29.3;19.7;;;;;;;13.08;71.55762;954.902;;;;
2019/05/03 06:20:50;;;;;;;30.4;20.3;;;;;;;12.8;72.28711;954.884;;;;
2019/05/03 06:22:59;;;;;;;29.8;19.4;;;;;;;13;71.58008;954.926;;;;
2019/05/03 06:25:24;;;;;;;29.4;19.6;;;;;;;13;71.92188;954.8699;;;;
2019/05/03 06:27:39;;;;;;;28.6;19.1;;;;;;;13.2;71.44727;954.8223;;;;
2019/05/03 06:30:11;;;;;;;27.1;19.6;;;;;;;13.3;70.49609;954.8734;;;;
2019/05/03 06:32:33;;;;;;;26.3;19;;;;;;;13.34;70.50293;954.8828;;;;
2019/05/03 06:34:55;;;;;;;26.5;19.2;;;;;;;13.33;70.55859;954.8546;;;;
2019/05/03 06:37:22;;;;;;;30.3;19.7;;;;;;;13.37;70.04883;954.9146;;;;
2019/05/03 06:39:45;;;;;;;25.3;18.7;;;;;;;13.43;70.75293;954.9119;;;;
2019/05/03 06:42:10;;;;;;;25.5;19.1;;;;;;;13.6;69.83594;954.9402;;;;
2019/05/03 06:44:36;;;;;;;26.3;19.1;;;;;;;13.6;69.61328;954.9348;;;;
2019/05/03 06:47:01;;;;;;;31.3;20.9;;;;;;;13.59;70.25977;954.985;;;;
2019/05/03 06:49:26;;;;;;;30;19.9;;;;;;;13.62;69.80469;954.9528;;;;
2019/05/03 06:51:52;;;;;;;30;20.5;;;;;;;13.48;70.11133;954.9852;;;;
2019/05/03 06:54:17;;;;;;;30;21.1;;;;;;;13.38;70.20215;955.0099;;;;
2019/05/03 06:56:42;;;;;;;29.1;20.5;;;;;;;13.31;71.0293;955.0234;;;;
2019/05/03 06:59:13;;;;;;;29;20.4;;;;;;;13.32;70.37012;954.9775;;;;
2019/05/03 07:01:38;;;;;;;34.6;22.6;;;;;;;13.11;71.77441;954.9838;;;;
2019/05/03 07:04:01;;;;;;;28.2;20.5;;;;;;;13.28;70.68164;955.0687;;;;
2019/05/03 07:06:27;;;;;;;30.4;21.6;;;;;;;13.18;71.38379;955.0882;;;;
2019/05/03 07:09:11;;;;;;;31.9;21.7;;;;;;;13.33;70.61914;955.0358;;;;
2019/05/03 07:13:33;;;;;;;33.3;21.9;;;;;;;13.13;71.63477;955.0854;;;;
2019/05/03 07:15:58;;;;;;;29.5;21.7;;;;;;;13.19;71.0918;955.1035;;;;
2019/05/03 07:18:25;;;;;;;30.8;21;;;;;;;13.32;70.83008;955.0598;;;;
2019/05/03 07:20:53;;;;;;;28.8;21.3;;;;;;;13.36;70.49414;955.0577;;;;
2019/05/03 07:23:15;;;;;;;29.4;21.6;;;;;;;13.35;69.80859;955.0891;;;;
2019/05/03 07:25:40;;;;;;;30.3;20.9;;;;;;;13.43;69.61914;955.1656;;;;
2019/05/03 07:28:05;;;;;;;29.1;21.2;;;;;;;13.47;70.12305;955.1266;;;;
2019/05/03 07:30:30;;;;;;;31.3;21.1;;;;;;;13.52;70.33203;955.1683;;;;
2019/05/03 07:33:00;;;;;;;28.4;20.4;;;;;;;13.61;70.02637;955.1256;;;;
2019/05/03 07:35:21;;;;;;;29.8;21.3;;;;;;;13.66;69.96484;955.0667;;;;
2019/05/03 07:37:46;;;;;;;29.7;21.3;;;;;;;13.49;70.79883;955.092;;;;
2019/05/03 07:40:11;;;;;;;27.7;20.8;;;;;;;13.65;70.05859;955.0552;;;;
2019/05/03 07:42:36;;;;;;;29.7;21.8;;;;;;;13.69;70.39453;955.0385;;;;
2019/05/03 07:45:01;;;;;;;30.8;21.2;;;;;;;13.76;69.52051;955.051;;;;
2019/05/03 07:47:26;;;;;;;31.9;21.9;;;;;;;13.82;68.97363;955.0666;;;;
2019/05/03 07:49:51;;;;;;;32.4;21.7;;;;;;;13.85;68.31836;955.0944;;;;
2019/05/03 07:52:16;;;;;;;31.6;21.8;;;;;;;13.68;69.03516;955.1014;;;;
2019/05/03 07:54:42;;;;;;;28.7;21;;;;;;;13.65;69.26563;955.0997;;;;
2019/05/03 07:57:26;;;;;;;31;21.6;;;;;;;13.57;69.68848;955.09;;;;
2019/05/03 07:59:33;;;;;;;31.3;22.5;;;;;;;13.36;70.64746;955.1138;;;;
2019/05/03 08:01:58;;;;;;;31.4;21.5;;;;;;;13.28;70.56348;955.1248;;;;
2019/05/03 08:04:23;;;;;;;29.4;20.8;;;;;;;13.32;70.48828;955.0559;;;;
2019/05/03 08:06:48;;;;;;;29.9;22.5;;;;;;;13.21;71.73145;955.1044;;;;
2019/05/03 08:09:14;;;;;;;30;21.7;;;;;;;13.17;71.77246;955.1903;;;;
2019/05/03 08:11:39;;;;;;;30.7;21.6;;;;;;;13.21;72.93555;955.1814;;;;
2019/05/03 08:14:04;;;;;;;32.1;21.8;;;;;;;13.46;72.19629;955.2549;;;;
2019/05/03 08:16:30;;;;;;;32.4;22.4;;;;;;;13.36;72.77148;955.2876;;;;
2019/05/03 08:18:55;;;;;;;32.9;22.3;;;;;;;13.11;72.61133;955.3627;;;;
2019/05/03 08:21:20;;;;;;;31.7;22.3;;;;;;;12.89;72.53906;955.3794;;;;
2019/05/03 08:23:45;;;;;;;28.3;21.4;;;;;;;13.14;69.79785;955.3624;;;;
2019/05/03 08:26:10;;;;;;;27.2;20.7;;;;;;;13.23;69.44629;955.4135;;;;
2019/05/03 08:28:37;;;;;;;28.8;21.7;;;;;;;13.38;69.58984;955.4268;;;;
2019/05/03 08:33:45;;;;;;;30.4;22.4;;;;;;;13.44;69.03223;955.4949;;;;
2019/05/03 08:35:53;;;;;;;30.3;22.4;;;;;;;13.46;68.96387;955.5387;;;;
2019/05/03 08:38:18;;;;;;;30.8;22.6;;;;;;;13.48;69.29688;955.5475;;;;
2019/05/03 08:40:45;;;;;;;31.3;23.1;;;;;;;13.34;69.44141;955.5103;;;;
2019/05/03 08:43:08;;;;;;;34.5;24.1;;;;;;;13.3;70.06055;955.4824;;;;
2019/05/03 08:45:33;;;;;;;35.5;24.1;;;;;;;13.18;70.78418;955.5623;;;;
2019/05/03 08:47:58;;;;;;;31.5;22.6;;;;;;;13.23;70.75586;955.5535;;;;
2019/05/03 08:50:24;;;;;;;29.3;22;;;;;;;13.29;69.8916;955.5378;;;;
2019/05/03 08:52:49;;;;;;;30.2;22.1;;;;;;;13.36;69.5752;955.596;;;;
2019/05/03 08:55:14;;;;;;;32.4;23.8;;;;;;;13.19;70.8916;955.5609;;;;
2019/05/03 08:57:39;;;;;;;30.6;22.2;;;;;;;13.37;70.03613;955.5681;;;;
2019/05/03 09:00:09;;;;;;;30.7;22.9;;;;;;;13.38;69.77734;955.5628;;;;
2019/05/03 09:02:29;;;;;;;31.2;22.4;;;;;;;13.53;69.7793;955.5891;;;;
2019/05/03 09:04:54;;;;;;;28.1;21.5;;;;;;;13.66;69.25684;955.5676;;;;
2019/05/03 09:07:19;;;;;;;31.4;23.1;;;;;;;13.61;70.51172;955.5165;;;;
2019/05/03 09:10:01;;;;;;;29.7;21.3;;;;;;;13.57;70.61035;955.5031;;;;
2019/05/03 09:12:10;;;;;;;34.4;23.5;;;;;;;13.36;71.69824;955.579;;;;
2019/05/03 09:14:37;;;;;;;28.2;20.3;;;;;;;13.49;71.70703;955.5404;;;;
2019/05/03 09:17:02;;;;;;;27.8;20.6;;;;;;;13.4;72.32813;955.5638;;;;
2019/05/03 09:19:28;;;;;;;25.4;18.9;;;;;;;13.52;71.51074;955.5099;;;;
2019/05/03 09:21:53;;;;;;;24.5;18.9;;;;;;;13.45;71.59375;955.5662;;;;
2019/05/03 09:24:18;;;;;;;26.8;18.8;;;;;;;13.57;71.81445;955.4731;;;;
2019/05/03 09:26:43;;;;;;;24.6;18.7;;;;;;;13.48;71.88086;955.5475;;;;
2019/05/03 09:29:08;;;;;;;23.7;17.7;;;;;;;13.52;70.93262;955.5139;;;;
2019/05/03 09:31:33;;;;;;;23.5;17.3;;;;;;;13.58;71.91016;955.5502;;;;
2019/05/03 09:33:58;;;;;;;22.1;17.2;;;;;;;13.57;71.50781;955.5594;;;;
2019/05/03 09:36:24;;;;;;;22.7;17.4;;;;;;;13.72;70.89648;955.4901;;;;
2019/05/03 09:38:49;;;;;;;22.9;17.9;;;;;;;13.73;70.91992;955.5633;;;;
2019/05/03 09:41:14;;;;;;;23.9;17.8;;;;;;;13.66;71.28711;955.5114;;;;
2019/05/03 09:43:39;;;;;;;23.5;18.2;;;;;;;13.65;71.91016;955.5705;;;;
2019/05/03 09:46:04;;;;;;;23.6;18;;;;;;;13.81;71.16895;955.5482;;;;
2019/05/03 09:48:31;;;;;;;22.9;17.9;;;;;;;13.87;71.07227;955.5399;;;;
2019/05/03 09:50:56;;;;;;;26.6;20.4;;;;;;;13.68;71.63086;955.5736;;;;
2019/05/03 09:53:24;;;;;;;23.6;18.2;;;;;;;13.92;71.25781;955.5595;;;;
2019/05/03 09:55:52;;;;;;;25.5;19.3;;;;;;;13.95;70.50684;955.5848;;;;
2019/05/03 09:58:17;;;;;;;23.5;18.6;;;;;;;14.04;69.80176;955.6362;;;;
2019/05/03 10:00:42;;;;;;;24.8;19.7;;;;;;;13.65;70.63574;955.6267;;;;
2019/05/03 10:03:07;;;;;;;24.9;19.1;;;;;;;13.85;71.00879;955.6323;;;;
2019/05/03 10:05:35;;;;;;;26.2;19.6;;;;;;;13.85;70.37402;955.5432;;;;
2019/05/03 10:08:08;;;;;;;26.4;19.6;;;;;;;13.73;71.02637;955.5633;;;;
2019/05/03 10:12:58;;;;;;;26.6;19.9;;;;;;;13.88;70.38867;955.6169;;;;
2019/05/03 10:15:23;;;;;;;26.6;20.1;;;;;;;13.8;70.8252;955.6674;;;;
2019/05/03 10:17:56;;;;;;;26.9;20.1;;;;;;;13.81;70.43652;955.6791;;;;
2019/05/03 10:20:14;;;;;;;26.1;20;;;;;;;13.82;71.00586;955.6666;;;;
2019/05/03 10:22:38;;;;;;;29.1;20.9;;;;;;;13.81;70.38965;955.6383;;;;
2019/05/03 10:25:03;;;;;;;28;20.1;;;;;;;13.77;69.61523;955.6696;;;;
2019/05/03 10:27:46;;;;;;;27.3;20.5;;;;;;;13.76;70.46387;955.6972;;;;
2019/05/03 10:30:02;;;;;;;26.4;20.4;;;;;;;13.74;69.11426;955.6534;;;;
2019/05/03 10:32:38;;;;;;;27.6;20.4;;;;;;;13.65;69.82031;955.6267;;;;
2019/05/03 10:34:54;;;;;;;27.1;20.9;;;;;;;13.59;70;955.6349;;;;
2019/05/03 10:37:29;;;;;;;28.6;21.9;;;;;;;13.64;70.29199;955.6727;;;;
2019/05/03 10:39:43;;;;;;;29.1;21.5;;;;;;;13.67;69.36328;955.6575;;;;
2019/05/03 10:42:08;;;;;;;30;22.1;;;;;;;13.52;70.15332;955.6613;;;;
2019/05/03 10:44:33;;;;;;;26.9;20.9;;;;;;;13.59;70.4834;955.7265;;;;
2019/05/03 10:46:58;;;;;;;27.7;21.3;;;;;;;13.59;70.07031;955.7395;;;;
2019/05/03 10:49:23;;;;;;;29.7;21.5;;;;;;;13.61;70.05078;955.7834;;;;
2019/05/03 10:51:59;;;;;;;27.3;21.3;;;;;;;13.52;70.10645;955.6969;;;;
2019/05/03 10:54:20;;;;;;;20.1;16.4;;;;;;;13.51;68.13477;955.7283;;;;
2019/05/03 10:56:52;;;;;;;21.3;16.8;;;;;;;13.62;69.05957;955.7558;;;;
2019/05/03 10:59:14;;;;;;;22;16.6;;;;;;;13.66;68.71387;955.7115;;;;
2019/05/03 11:02:00;;;;;;;23.1;15.6;;;;;;;13.57;67.61328;955.7347;;;;
2019/05/03 11:04:05;;;;;;;18;14.5;;;;;;;13.64;67.36426;955.7851;;;;
2019/05/03 11:06:31;;;;;;;22.3;16.1;;;;;;;13.54;67.70313;955.8138;;;;
2019/05/03 11:08:56;;;;;;;20.7;15.6;;;;;;;13.59;67.92285;955.835;;;;
2019/05/03 11:11:21;;;;;;;19.6;15.1;;;;;;;13.36;68.0166;955.8458;;;;
2019/05/03 11:13:46;;;;;;;19.3;15;;;;;;;13.48;67.95313;955.8948;;;;
2019/05/03 11:16:11;;;;;;;23.3;17.7;;;;;;;13.34;69.47656;955.7886;;;;
2019/05/03 11:18:36;;;;;;;22.1;17.5;;;;;;;13.31;68.66992;955.7723;;;;
2019/05/03 11:21:01;;;;;;;25.1;17.7;;;;;;;13.46;69.08301;955.8118;;;;
2019/05/03 11:23:26;;;;;;;22.6;16.8;;;;;;;13.55;69.00293;955.7639;;;;
2019/05/03 11:25:51;;;;;;;21;15.7;;;;;;;13.63;67.18555;955.6889;;;;
2019/05/03 11:28:22;;;;;;;17.7;14.7;;;;;;;13.71;67.25684;955.7584;;;;
2019/05/03 11:30:42;;;;;;;20.6;15.3;;;;;;;13.86;67.88281;955.7545;;;;
2019/05/03 11:33:14;;;;;;;20.7;16.1;;;;;;;14.01;67.24414;955.7131;;;;
2019/05/03 11:35:42;;;;;;;22.6;15.9;;;;;;;13.71;66.97363;955.7545;;;;
2019/05/03 11:38:04;;;;;;;20.1;16.1;;;;;;;13.56;68.53223;955.7584;;;;
2019/05/03 11:40:22;;;;;;;20.2;16.2;;;;;;;13.69;68.78906;955.6754;;;;
2019/05/03 11:42:48;;;;;;;21.1;16;;;;;;;13.57;68.96973;955.6993;;;;
2019/05/03 11:45:12;;;;;;;19.1;15.4;;;;;;;13.79;67.6709;955.7303;;;;
2019/05/03 11:47:38;;;;;;;17.1;14.3;;;;;;;13.7;67.82227;955.7562;;;;
2019/05/03 11:50:03;;;;;;;17.5;14.2;;;;;;;13.79;67.70605;955.7303;;;;
2019/05/03 11:52:28;;;;;;;18.5;14.8;;;;;;;13.74;69.50586;955.8442;;;;
2019/05/03 11:54:53;;;;;;;18.5;14.4;;;;;;;13.76;69.21289;955.7703;;;;
2019/05/03 11:57:23;;;;;;;16.3;13.2;;;;;;;13.77;69.41504;955.765;;;;
2019/05/03 11:59:43;;;;;;;18.8;13.5;;;;;;;13.87;69.52539;955.7924;;;;
2019/05/03 12:02:22;;;;;;;17.3;13.6;;;;;;;13.88;68.27637;955.7725;;;;
2019/05/03 12:04:34;;;;;;;15.4;12.7;;;;;;;13.91;68.47949;955.7678;;;;
2019/05/03 12:06:59;;;;;;;14.8;12.7;;;;;;;13.99;68.81445;955.7852;;;;
2019/05/03 12:09:24;;;;;;;16.8;12.5;;;;;;;14;68.33008;955.7576;;;;
2019/05/03 12:11:49;;;;;;;15.7;12.8;;;;;;;14.1;68.45215;955.7417;;;;
2019/05/03 12:14:15;;;;;;;15.6;12.5;;;;;;;14.11;67.7793;955.7456;;;;
2019/05/03 12:16:45;;;;;;;15.5;12.3;;;;;;;14.15;68.23535;955.7235;;;;
2019/05/03 12:19:05;;;;;;;16.7;13;;;;;;;14.15;67.92578;955.7813;;;;
2019/05/03 12:21:31;;;;;;;15.5;13.3;;;;;;;14.06;69.31836;955.777;;;;
2019/05/03 12:23:56;;;;;;;17;13.3;;;;;;;14.01;70.6582;955.8571;;;;
2019/05/03 12:26:23;;;;;;;17.7;13.7;;;;;;;14.03;70.98047;955.9662;;;;
2019/05/03 12:28:48;;;;;;;15;12.6;;;;;;;13.75;67.55859;955.8649;;;;
2019/05/03 12:31:13;;;;;;;14.1;11.6;;;;;;;13.77;66.35742;955.9089;;;;
2019/05/03 12:33:39;;;;;;;13.6;11.5;;;;;;;13.79;67.71777;955.7997;;;;
2019/05/03 12:36:04;;;;;;;15;11.1;;;;;;;13.95;66.82227;955.7889;;;;
2019/05/03 12:38:29;;;;;;;14;11.3;;;;;;;13.9;66.36523;955.7639;;;;
2019/05/03 12:40:54;;;;;;;13.2;10.2;;;;;;;13.9;63.33008;955.7339;;;;
2019/05/03 12:43:19;;;;;;;13.2;10.1;;;;;;;13.93;63.81934;955.6535;;;;
2019/05/03 12:45:44;;;;;;;13.8;10.9;;;;;;;13.99;64.32324;955.6166;;;;
2019/05/03 12:48:09;;;;;;;12.5;10.7;;;;;;;13.8;66.18457;955.6111;;;;
2019/05/03 12:50:35;;;;;;;14.4;10.7;;;;;;;13.95;65.28516;955.6333;;;;
2019/05/03 12:53:00;;;;;;;13.8;11.1;;;;;;;13.99;65.89453;955.6113;;;;
2019/05/03 12:55:25;;;;;;;14.1;11.6;;;;;;;14.01;67.38574;955.5822;;;;
2019/05/03 12:57:50;;;;;;;15.4;12.2;;;;;;;13.94;67.98926;955.5524;;;;
2019/05/03 13:02:46;;;;;;;15.5;12.8;;;;;;;13.96;67.61426;955.5742;;;;
2019/05/03 13:05:07;;;;;;;14.3;12.2;;;;;;;14.09;66.87793;955.483;;;;
2019/05/03 13:07:42;;;;;;;13.1;11.7;;;;;;;14.15;66.87598;955.3962;;;;
2019/05/03 13:09:58;;;;;;;14;11.3;;;;;;;14.24;66.01465;955.4133;;;;
2019/05/03 13:14:53;;;;;;;14.2;11.8;;;;;;;14.44;66.08105;955.3647;;;;
2019/05/03 13:17:34;;;;;;;14.9;11.3;;;;;;;14.5;65.22559;955.375;;;;
2019/05/03 13:19:43;;;;;;;14;11.8;;;;;;;14.49;64.88086;955.3293;;;;
2019/05/03 13:22:08;;;;;;;13.8;11.1;;;;;;;14.39;64.5;955.3268;;;;
2019/05/03 13:24:33;;;;;;;13.8;10.9;;;;;;;14.42;63.66602;955.2986;;;;
2019/05/03 13:26:58;;;;;;;12.4;11;;;;;;;14.26;66.2666;955.3003;;;;
2019/05/03 13:29:23;;;;;;;13.5;10.7;;;;;;;14.16;66.47559;955.2731;;;;
2019/05/03 13:31:49;;;;;;;11.7;10.5;;;;;;;14.23;65.19727;955.258;;;;
2019/05/03 13:34:14;;;;;;;14.9;11.2;;;;;;;14.17;65.60254;955.2622;;;;
2019/05/03 13:36:39;;;;;;;14.1;11.5;;;;;;;14.31;65.69434;955.224;;;;
2019/05/03 13:39:04;;;;;;;14;11;;;;;;;14.32;64.71582;955.2356;;;;
2019/05/03 13:41:29;;;;;;;16.8;11.6;;;;;;;14.55;65.05566;955.2239;;;;
2019/05/03 13:43:55;;;;;;;13.4;11.5;;;;;;;14.72;63.56641;955.2742;;;;
2019/05/03 13:46:20;;;;;;;15.1;11.4;;;;;;;14.79;63.58789;955.1855;;;;
2019/05/03 13:48:45;;;;;;;13.9;12;;;;;;;14.85;64.07031;955.1206;;;;
2019/05/03 13:51:10;;;;;;;15.7;12.1;;;;;;;14.86;64.71289;955.0953;;;;
2019/05/03 13:53:35;;;;;;;16.3;12.8;;;;;;;14.98;64.73047;955.0499;;;;
2019/05/03 13:56:00;;;;;;;14.1;12.2;;;;;;;15.07;64.15039;955.0236;;;;
2019/05/03 13:58:26;;;;;;;15.2;12;;;;;;;14.49;63.51074;954.9875;;;;
2019/05/03 14:00:51;;;;;;;13.8;11.6;;;;;;;14.78;63.83691;954.942;;;;
2019/05/03 14:03:16;;;;;;;15.1;11.4;;;;;;;14.89;64.1123;954.9503;;;;
2019/05/03 14:05:41;;;;;;;13.2;11.3;;;;;;;14.59;64.41309;954.8926;;;;
2019/05/03 14:08:06;;;;;;;12.8;11.4;;;;;;;14.64;64.9043;954.8219;;;;
2019/05/03 14:10:31;;;;;;;12.3;11;;;;;;;14.97;63.05762;954.83;;;;
2019/05/03 14:12:56;;;;;;;13;11;;;;;;;15.09;63.62109;954.796;;;;
2019/05/03 14:15:21;;;;;;;14.5;10.3;;;;;;;14.9;63.59277;954.7916;;;;
2019/05/03 14:17:47;;;;;;;11.2;9.8;;;;;;;14.97;60.73828;954.7629;;;;
2019/05/03 14:20:18;;;;;;;12.1;10;;;;;;;15.25;61.35742;954.8158;;;;
2019/05/03 14:22:38;;;;;;;12.8;10.2;;;;;;;15.11;61.24414;954.8212;;;;
2019/05/03 14:25:02;;;;;;;12.4;9.9;;;;;;;15.15;60.91797;954.8528;;;;
2019/05/03 14:27:27;;;;;;;12;9.8;;;;;;;15.34;59.97266;954.6996;;;;
2019/05/03 14:29:52;;;;;;;13;10.6;;;;;;;15.13;60.77148;954.8352;;;;
2019/05/03 14:32:17;;;;;;;11.3;9.8;;;;;;;15.15;59.79199;954.8173;;;;
2019/05/03 14:34:43;;;;;;;11.2;10;;;;;;;14.99;61.85352;954.8086;;;;
2019/05/03 14:37:08;;;;;;;11.5;9.6;;;;;;;15.16;61.04785;954.8605;;;;
2019/05/03 14:39:33;;;;;;;11.3;10.1;;;;;;;15.1;59.42969;954.793;;;;
2019/05/03 14:41:58;;;;;;;11.5;10.3;;;;;;;15.04;60.55859;954.8067;;;;
2019/05/03 14:44:25;;;;;;;12.7;10.1;;;;;;;14.65;61.01367;954.7679;;;;
2019/05/03 14:46:50;;;;;;;11.6;10.2;;;;;;;14.51;59.17188;954.8178;;;;
2019/05/03 14:49:16;;;;;;;11.3;9.7;;;;;;;14.67;60.51855;954.8287;;;;
2019/05/03 14:51:41;;;;;;;11.5;9.8;;;;;;;14.82;58.69434;954.7717;;;;
2019/05/03 14:54:06;;;;;;;11.4;10;;;;;;;15;57.76953;954.6834;;;;
2019/05/03 14:56:47;;;;;;;13.8;10.6;;;;;;;15.09;59.16797;954.678;;;;
2019/05/03 15:01:44;;;;;;;11.3;10;;;;;;;15.39;59.23242;954.6155;;;;
2019/05/03 15:04:02;;;;;;;11.6;10.2;;;;;;;15.21;58.48438;954.7225;;;;
2019/05/03 15:06:27;;;;;;;12.9;10.8;;;;;;;15.16;58.79883;954.6716;;;;
2019/05/03 15:08:53;;;;;;;14.7;10.8;;;;;;;15.02;60.54395;954.6619;;;;
2019/05/03 15:11:18;;;;;;;12.3;10.1;;;;;;;15.07;60.34961;954.6286;;;;
2019/05/03 15:13:48;;;;;;;12.8;10.7;;;;;;;14.98;59.8291;954.6474;;;;
2019/05/03 15:16:13;;;;;;;12.5;10.6;;;;;;;14.78;61.24512;954.5882;;;;
2019/05/03 15:18:40;;;;;;;11.6;10.2;;;;;;;15.01;60.88477;954.6033;;;;
2019/05/03 15:21:05;;;;;;;12.7;11;;;;;;;14.77;61.21875;954.582;;;;
2019/05/03 15:23:30;;;;;;;13.2;11.1;;;;;;;14.68;61.14844;954.5953;;;;
2019/05/03 15:25:55;;;;;;;13.8;11.3;;;;;;;14.64;61.55664;954.5992;;;;
2019/05/03 15:28:20;;;;;;;12.4;10.5;;;;;;;14.6;60.33301;954.5375;;;;
2019/05/03 15:30:45;;;;;;;12.2;10.9;;;;;;;14.71;60.02832;954.6022;;;;
2019/05/03 15:33:10;;;;;;;12;10.6;;;;;;;14.82;59.59375;954.6144;;;;
2019/05/03 15:35:36;;;;;;;14.1;10.7;;;;;;;14.84;59.90332;954.6639;;;;